Time;durP1;ratioP1;P1;durP2;ratioP2;P2;SDS_P1;SDS_P2;PMS_P1;PMS_P2;Temp;Humidity;BMP_temperature;BMP_pressure;BME280_temperature;BME280_humidity;BME280_pressure;Samples;Min_cycle;Max_cycle;Signal;HPM_P1;HPM_P2
2021/11/26 00:00:11;;;;;;;37.88;18.75;;;2.00;99.90;;;;;;5049530;28;20165;-80
2021/11/26 00:02:37;;;;;;;34.25;18.42;;;2.00;99.90;;;;;;5049316;28;20157;-78
2021/11/26 00:05:04;;;;;;;39.67;19.20;;;2.00;99.90;;;;;;5049350;28;20157;-79
2021/11/26 00:07:32;;;;;;;34.95;19.40;;;2.00;99.90;;;;;;5049225;28;20185;-80
2021/11/26 00:09:58;;;;;;;37.08;18.77;;;2.00;99.90;;;;;;5047918;28;20166;-80
2021/11/26 00:12:24;;;;;;;44.00;18.77;;;1.90;99.90;;;;;;5047884;28;20177;-80
2021/11/26 00:17:25;;;;;;;35.70;20.38;;;2.00;99.90;;;;;;5049151;28;20488;-80
2021/11/26 00:19:51;;;;;;;39.28;19.80;;;2.00;99.90;;;;;;5049040;28;20244;-80
2021/11/26 00:22:17;;;;;;;33.78;18.30;;;2.00;99.90;;;;;;5047754;28;20169;-80
2021/11/26 00:24:43;;;;;;;41.95;19.30;;;2.10;99.90;;;;;;5047864;28;20669;-78
2021/11/26 00:27:09;;;;;;;37.13;19.88;;;2.10;99.90;;;;;;5047935;28;20235;-78
2021/11/26 00:29:36;;;;;;;41.42;19.98;;;2.10;99.90;;;;;;5047595;28;20197;-78
2021/11/26 00:32:03;;;;;;;44.92;19.80;;;2.10;99.90;;;;;;5048845;28;20193;-77
2021/11/26 00:34:29;;;;;;;32.35;17.23;;;2.20;99.90;;;;;;5047656;28;20229;-78
2021/11/26 00:36:55;;;;;;;36.53;18.90;;;2.20;99.90;;;;;;5048889;28;20177;-78
2021/11/26 00:39:21;;;;;;;37.90;19.65;;;2.30;99.90;;;;;;5053732;28;20185;-77
2021/11/26 00:41:48;;;;;;;34.53;18.08;;;2.40;99.90;;;;;;5068797;28;20191;-79
2021/11/26 00:44:13;;;;;;;27.83;15.95;;;2.30;99.90;;;;;;5067449;28;20199;-78
2021/11/26 00:46:40;;;;;;;34.20;17.02;;;2.30;99.90;;;;;;5068707;28;20216;-78
2021/11/26 00:49:06;;;;;;;38.67;19.67;;;2.30;99.90;;;;;;5068763;28;20192;-79
2021/11/26 00:51:32;;;;;;;32.90;18.08;;;2.30;99.90;;;;;;5068478;28;20204;-78
2021/11/26 00:54:00;;;;;;;29.48;17.15;;;2.20;99.90;;;;;;5068622;28;20208;-78
2021/11/26 00:56:26;;;;;;;36.25;18.50;;;2.20;99.90;;;;;;5067173;28;20164;-78
2021/11/26 00:58:52;;;;;;;33.53;18.45;;;2.10;99.90;;;;;;5068626;28;20192;-79
2021/11/26 01:01:17;;;;;;;37.65;18.38;;;2.10;99.90;;;;;;5068652;28;20163;-78
2021/11/26 01:03:44;;;;;;;34.63;16.88;;;2.20;99.90;;;;;;5068531;28;20215;-79
2021/11/26 01:06:10;;;;;;;33.05;17.13;;;2.20;99.90;;;;;;5067383;28;20180;-78
2021/11/26 01:08:36;;;;;;;35.13;18.27;;;2.20;99.90;;;;;;5068471;28;20271;-79
2021/11/26 01:11:02;;;;;;;37.20;17.92;;;2.30;99.90;;;;;;5067168;28;20216;-79
2021/11/26 01:13:28;;;;;;;35.70;18.63;;;2.30;99.90;;;;;;5068552;28;20161;-78
2021/11/26 01:15:54;;;;;;;32.72;17.05;;;2.20;99.90;;;;;;5068540;28;20183;-78
2021/11/26 01:18:21;;;;;;;31.45;17.95;;;2.20;99.90;;;;;;5068333;28;20185;-78
2021/11/26 01:20:48;;;;;;;36.47;19.98;;;2.20;99.90;;;;;;5067127;28;20196;-79
2021/11/26 01:23:14;;;;;;;35.13;19.70;;;2.20;99.90;;;;;;5067122;28;20249;-78
2021/11/26 01:25:41;;;;;;;32.03;17.08;;;2.20;99.90;;;;;;5068546;28;20174;-79
2021/11/26 01:28:08;;;;;;;34.17;18.30;;;2.20;99.90;;;;;;5068197;28;20196;-79
2021/11/26 01:30:37;;;;;;;31.42;18.67;;;2.20;99.90;;;;;;5068288;28;20559;-78
2021/11/26 01:33:08;;;;;;;37.72;18.90;;;2.20;99.90;;;;;;5068438;28;20161;-78
2021/11/26 01:35:35;;;;;;;37.42;17.98;;;2.10;99.90;;;;;;5071468;28;20157;-78
2021/11/26 01:38:04;;;;;;;34.67;17.77;;;2.00;99.90;;;;;;5064502;28;20205;-78
2021/11/26 01:40:32;;;;;;;38.08;18.05;;;2.10;99.90;;;;;;5066533;28;20180;-78
2021/11/26 01:42:59;;;;;;;39.15;19.52;;;2.10;99.90;;;;;;5071961;28;20153;-78
2021/11/26 01:45:26;;;;;;;33.00;19.30;;;2.10;99.90;;;;;;5071916;28;20165;-78
2021/11/26 01:47:52;;;;;;;37.97;18.77;;;2.00;99.90;;;;;;5071667;28;20196;-79
2021/11/26 01:50:22;;;;;;;37.72;18.95;;;2.10;99.90;;;;;;5070378;28;20184;-79
2021/11/26 01:52:49;;;;;;;36.30;17.48;;;2.20;99.90;;;;;;5071818;28;20559;-78
2021/11/26 01:55:17;;;;;;;36.15;17.92;;;2.20;99.90;;;;;;5071661;28;20177;-78
2021/11/26 01:57:46;;;;;;;37.20;18.63;;;2.20;99.90;;;;;;5069966;28;20236;-78
2021/11/26 02:00:18;;;;;;;35.00;16.48;;;2.30;99.90;;;;;;5070361;28;20196;-78
2021/11/26 02:02:45;;;;;;;34.63;18.83;;;2.30;99.90;;;;;;5070258;28;20173;-78
2021/11/26 02:05:11;;;;;;;35.40;17.92;;;2.40;99.90;;;;;;5070230;28;20172;-77
2021/11/26 02:07:37;;;;;;;31.05;17.42;;;2.40;99.90;;;;;;5070157;28;20195;-78
2021/11/26 02:10:05;;;;;;;31.80;16.95;;;2.40;99.90;;;;;;5070054;28;20173;-79
2021/11/26 02:12:31;;;;;;;29.70;16.70;;;2.40;99.90;;;;;;5071562;28;20157;-77
2021/11/26 02:14:58;;;;;;;35.63;18.63;;;2.30;99.90;;;;;;5071293;28;20203;-78
2021/11/26 02:17:25;;;;;;;31.60;19.10;;;2.40;99.90;;;;;;5071185;28;20153;-78
2021/11/26 02:19:53;;;;;;;32.67;17.40;;;2.30;99.90;;;;;;5071242;28;20222;-77
2021/11/26 02:22:19;;;;;;;32.00;17.15;;;2.30;99.90;;;;;;5071204;28;20153;-77
2021/11/26 02:24:45;;;;;;;30.88;19.40;;;2.40;99.90;;;;;;5071163;28;20216;-79
2021/11/26 02:27:10;;;;;;;40.78;20.15;;;2.40;99.90;;;;;;5071134;28;20215;-80
2021/11/26 02:29:36;;;;;;;35.70;18.58;;;2.40;99.90;;;;;;5070952;28;20195;-79
2021/11/26 02:32:02;;;;;;;37.08;18.70;;;2.30;99.90;;;;;;5069697;28;20204;-78
2021/11/26 02:34:28;;;;;;;35.47;20.25;;;2.20;99.90;;;;;;5069878;28;20168;-78
2021/11/26 02:36:54;;;;;;;34.50;18.92;;;2.20;99.90;;;;;;5070892;28;20172;-79
2021/11/26 02:39:20;;;;;;;42.28;17.38;;;2.20;99.90;;;;;;5069580;28;20219;-78
2021/11/26 02:41:46;;;;;;;33.75;19.00;;;2.20;99.90;;;;;;5071116;28;20220;-78
2021/11/26 02:44:12;;;;;;;35.45;17.90;;;2.20;99.90;;;;;;5069810;28;20190;-78
2021/11/26 02:46:38;;;;;;;28.02;16.35;;;2.20;99.90;;;;;;5069930;28;20220;-78
2021/11/26 02:49:05;;;;;;;32.65;18.27;;;2.20;99.90;;;;;;5071005;28;20196;-79
2021/11/26 02:51:31;;;;;;;34.75;18.63;;;2.30;99.90;;;;;;5069463;28;20200;-80
2021/11/26 02:53:58;;;;;;;32.25;19.92;;;2.30;99.90;;;;;;5069678;28;20204;-79
2021/11/26 02:56:24;;;;;;;37.00;19.45;;;2.30;99.90;;;;;;5069469;28;20306;-79
2021/11/26 02:58:49;;;;;;;40.63;19.65;;;2.20;99.90;;;;;;5069592;28;20201;-79
2021/11/26 03:01:16;;;;;;;36.22;19.73;;;2.20;99.90;;;;;;5070816;28;20164;-78
2021/11/26 03:03:42;;;;;;;31.90;17.65;;;2.30;99.90;;;;;;5070842;28;20567;-78
2021/11/26 03:06:08;;;;;;;37.20;18.52;;;2.30;99.90;;;;;;5069332;28;20177;-77
2021/11/26 03:08:35;;;;;;;36.63;18.77;;;2.30;99.90;;;;;;5070660;28;20227;-78
2021/11/26 03:11:03;;;;;;;35.17;18.17;;;2.30;99.90;;;;;;5069268;28;20214;-79
2021/11/26 03:13:30;;;;;;;33.83;18.65;;;2.30;99.90;;;;;;5069267;28;20233;-79
2021/11/26 03:15:56;;;;;;;39.95;18.70;;;2.30;99.90;;;;;;5070553;28;20163;-79
2021/11/26 03:18:24;;;;;;;39.22;21.55;;;2.40;99.90;;;;;;5070417;28;20220;-79
2021/11/26 03:20:50;;;;;;;45.35;20.42;;;2.40;99.90;;;;;;5070397;28;20160;-78
2021/11/26 03:23:18;;;;;;;40.95;18.02;;;2.30;99.90;;;;;;5070474;28;20582;-78
2021/11/26 03:25:45;;;;;;;51.80;20.75;;;2.30;99.90;;;;;;5070416;28;20523;-78
2021/11/26 03:28:13;;;;;;;39.83;19.13;;;2.30;99.90;;;;;;5069064;28;20232;-78
2021/11/26 03:30:40;;;;;;;45.72;20.00;;;2.30;99.90;;;;;;5070168;28;20204;-79
2021/11/26 03:33:07;;;;;;;39.67;19.60;;;2.30;99.90;;;;;;5070162;28;20149;-79
2021/11/26 03:35:33;;;;;;;42.95;20.20;;;2.30;99.90;;;;;;5069969;28;20153;-79
2021/11/26 03:37:59;;;;;;;40.33;20.73;;;2.30;99.90;;;;;;5068698;28;20291;-79
2021/11/26 03:40:26;;;;;;;53.25;21.60;;;2.30;99.90;;;;;;5068606;28;20173;-79
2021/11/26 03:42:54;;;;;;;42.17;19.17;;;2.30;99.90;;;;;;5070010;28;20702;-79
2021/11/26 03:45:22;;;;;;;42.03;20.65;;;2.40;99.90;;;;;;5068767;28;20165;-79
2021/11/26 03:47:50;;;;;;;39.58;20.20;;;2.40;99.90;;;;;;5069529;28;20219;-79
2021/11/26 03:50:16;;;;;;;38.70;20.17;;;2.40;99.90;;;;;;5068069;28;20208;-79
2021/11/26 03:52:42;;;;;;;40.60;20.58;;;2.40;99.90;;;;;;5069807;28;20160;-79
2021/11/26 03:55:13;;;;;;;41.13;20.13;;;2.40;99.90;;;;;;5069578;28;20184;-79
2021/11/26 03:57:40;;;;;;;36.33;18.95;;;2.50;99.90;;;;;;5068956;28;20208;-79
2021/11/26 04:00:09;;;;;;;36.65;18.77;;;2.50;99.90;;;;;;5069419;28;20175;-79
2021/11/26 04:02:34;;;;;;;38.75;19.17;;;2.50;99.90;;;;;;5068209;28;20180;-80
2021/11/26 04:05:00;;;;;;;32.53;18.25;;;2.50;99.90;;;;;;5067887;28;20171;-79
2021/11/26 04:07:26;;;;;;;38.10;19.40;;;2.50;99.90;;;;;;5069338;28;20165;-80
2021/11/26 04:09:52;;;;;;;40.42;19.95;;;2.50;99.90;;;;;;5069312;28;20672;-80
2021/11/26 04:12:18;;;;;;;31.83;17.85;;;2.50;99.90;;;;;;5067991;28;20204;-78
2021/11/26 04:14:51;;;;;;;40.72;20.08;;;2.50;99.90;;;;;;5069396;28;20161;-78
2021/11/26 04:17:17;;;;;;;35.40;18.95;;;2.40;99.90;;;;;;5069514;28;20182;-80
2021/11/26 04:19:43;;;;;;;28.10;17.23;;;2.40;99.90;;;;;;5068057;28;20661;-79
2021/11/26 04:22:09;;;;;;;39.45;18.25;;;2.40;99.90;;;;;;5065739;28;20259;-77
2021/11/26 04:24:35;;;;;;;33.90;18.55;;;2.40;99.90;;;;;;5069279;28;20701;-78
2021/11/26 04:27:01;;;;;;;32.15;18.88;;;2.40;99.90;;;;;;5068073;28;20639;-78
2021/11/26 04:29:27;;;;;;;37.40;19.35;;;2.50;99.90;;;;;;5050312;28;20208;-79
2021/11/26 04:31:53;;;;;;;39.45;18.95;;;2.50;99.90;;;;;;5047648;28;20201;-77
2021/11/26 04:34:19;;;;;;;33.05;19.35;;;2.50;99.90;;;;;;5048906;28;20192;-79
2021/11/26 04:36:45;;;;;;;32.45;17.50;;;2.50;99.90;;;;;;5051775;28;20161;-79
2021/11/26 04:39:11;;;;;;;36.70;17.83;;;2.50;99.90;;;;;;5055995;28;20203;-79
2021/11/26 04:41:37;;;;;;;33.10;19.23;;;2.50;99.90;;;;;;5068977;28;20164;-77
2021/11/26 04:44:03;;;;;;;36.75;19.98;;;2.50;99.90;;;;;;5068831;28;20240;-78
2021/11/26 04:46:29;;;;;;;36.08;17.50;;;2.50;99.90;;;;;;5068924;28;20168;-77
2021/11/26 04:48:55;;;;;;;35.03;18.02;;;2.60;99.90;;;;;;5049110;28;20236;-80
2021/11/26 04:51:21;;;;;;;34.72;19.60;;;2.60;99.90;;;;;;5048707;28;20681;-78
2021/11/26 04:53:47;;;;;;;29.92;18.15;;;2.60;99.90;;;;;;5059989;28;20177;-77
2021/11/26 04:56:13;;;;;;;37.28;18.60;;;2.60;99.90;;;;;;5048822;28;20274;-80
2021/11/26 04:58:39;;;;;;;33.72;18.45;;;2.60;99.90;;;;;;5052333;28;20239;-79
2021/11/26 05:01:05;;;;;;;28.13;18.05;;;2.60;99.90;;;;;;5052403;28;20177;-77
2021/11/26 05:03:32;;;;;;;33.55;18.05;;;2.60;99.90;;;;;;5060181;28;20180;-76
2021/11/26 05:05:59;;;;;;;34.28;18.05;;;2.60;99.90;;;;;;5068889;28;20184;-76
2021/11/26 05:08:26;;;;;;;32.70;16.33;;;2.70;99.90;;;;;;5068413;28;20200;-76
2021/11/26 05:10:54;;;;;;;44.88;18.95;;;2.70;99.90;;;;;;5070995;28;20287;-77
2021/11/26 05:13:23;;;;;;;34.22;18.50;;;2.70;99.90;;;;;;5072557;28;20157;-78
2021/11/26 05:15:49;;;;;;;38.20;19.52;;;2.60;99.90;;;;;;5072691;28;20521;-78
2021/11/26 05:18:15;;;;;;;36.25;18.42;;;2.60;99.90;;;;;;5065864;28;20197;-78
2021/11/26 05:20:42;;;;;;;35.72;17.05;;;2.70;99.90;;;;;;5052647;28;20185;-80
2021/11/26 05:23:10;;;;;;;32.58;17.73;;;2.70;99.90;;;;;;5052049;28;20164;-79
2021/11/26 05:25:36;;;;;;;40.53;18.48;;;2.80;99.90;;;;;;5052590;28;20165;-80
2021/11/26 05:28:02;;;;;;;35.10;20.17;;;2.80;99.90;;;;;;5051156;28;20260;-80
2021/11/26 05:30:28;;;;;;;40.20;21.70;;;2.90;99.90;;;;;;5052249;28;20225;-80
2021/11/26 05:32:54;;;;;;;37.65;21.88;;;2.90;99.90;;;;;;5052342;28;20183;-80
2021/11/26 05:35:21;;;;;;;43.28;20.85;;;2.80;99.90;;;;;;5052338;28;20179;-79
2021/11/26 05:37:47;;;;;;;38.50;19.67;;;2.80;99.90;;;;;;5052255;28;20189;-79
2021/11/26 05:40:15;;;;;;;41.67;19.95;;;2.80;99.90;;;;;;5063070;28;20192;-80
2021/11/26 05:42:42;;;;;;;35.85;19.65;;;2.80;99.90;;;;;;5072116;28;20148;-79
2021/11/26 05:45:10;;;;;;;36.05;18.92;;;2.90;99.90;;;;;;5070608;28;20169;-79
2021/11/26 05:47:37;;;;;;;32.10;19.25;;;2.90;99.90;;;;;;5070574;28;20236;-80
2021/11/26 05:50:09;;;;;;;35.88;18.48;;;2.90;99.90;;;;;;5071825;28;20172;-79
2021/11/26 05:52:37;;;;;;;35.78;17.80;;;2.90;99.90;;;;;;5070449;28;20172;-78
2021/11/26 05:55:06;;;;;;;30.38;15.90;;;2.80;99.90;;;;;;5071498;28;20178;-80
2021/11/26 05:57:32;;;;;;;30.90;16.10;;;2.90;99.90;;;;;;5067714;28;20224;-81
2021/11/26 05:59:58;;;;;;;31.83;15.52;;;2.90;99.90;;;;;;5071462;28;20173;-79
2021/11/26 06:02:24;;;;;;;23.80;12.43;;;2.90;99.90;;;;;;5071178;28;20179;-79
2021/11/26 06:04:50;;;;;;;19.60;11.73;;;2.90;99.90;;;;;;5071555;28;20226;-79
2021/11/26 06:07:16;;;;;;;21.10;11.88;;;3.00;99.90;;;;;;5070396;28;20173;-80
2021/11/26 06:09:42;;;;;;;21.40;12.13;;;3.00;99.90;;;;;;5069904;28;20287;-78
2021/11/26 06:12:09;;;;;;;16.83;9.55;;;3.10;99.90;;;;;;5071081;28;20203;-79
2021/11/26 06:14:36;;;;;;;20.58;10.25;;;3.00;99.90;;;;;;5071089;28;20160;-79
2021/11/26 06:17:03;;;;;;;15.82;9.20;;;3.10;99.90;;;;;;5071340;28;20260;-78
2021/11/26 06:19:29;;;;;;;16.70;8.40;;;3.00;99.90;;;;;;5071039;28;20199;-78
2021/11/26 06:21:55;;;;;;;13.02;8.27;;;3.00;99.90;;;;;;5070937;28;20161;-79
2021/11/26 06:24:21;;;;;;;14.60;9.02;;;3.00;99.90;;;;;;5070887;28;20167;-79
2021/11/26 06:26:47;;;;;;;13.63;8.90;;;3.00;99.90;;;;;;5069747;28;20173;-79
2021/11/26 06:29:13;;;;;;;14.40;8.07;;;3.00;99.90;;;;;;5071191;28;20201;-79
2021/11/26 06:31:40;;;;;;;11.82;7.93;;;3.10;99.90;;;;;;5071051;28;20580;-78
2021/11/26 06:34:06;;;;;;;17.48;10.63;;;3.10;99.90;;;;;;5069545;28;20168;-79
2021/11/26 06:36:33;;;;;;;20.08;9.48;;;3.00;99.90;;;;;;5070974;28;20157;-79
2021/11/26 06:39:00;;;;;;;13.00;8.55;;;3.00;99.90;;;;;;5069193;28;20197;-80
2021/11/26 06:41:26;;;;;;;15.43;8.40;;;3.00;99.90;;;;;;5070822;28;20192;-80
2021/11/26 06:43:52;;;;;;;17.42;9.63;;;2.90;99.90;;;;;;5069518;28;20176;-80
2021/11/26 06:46:18;;;;;;;18.38;10.10;;;2.90;99.90;;;;;;5070887;28;20206;-79
2021/11/26 06:48:43;;;;;;;19.75;11.50;;;3.00;99.90;;;;;;5069644;28;20641;-79
2021/11/26 06:51:10;;;;;;;17.80;11.40;;;3.00;99.90;;;;;;5070750;28;20511;-79
2021/11/26 06:53:36;;;;;;;25.80;13.32;;;2.90;99.90;;;;;;5070554;28;20630;-80
2021/11/26 06:56:02;;;;;;;22.80;12.75;;;3.00;99.90;;;;;;5070701;28;20680;-80
2021/11/26 06:58:29;;;;;;;29.25;15.23;;;2.90;99.90;;;;;;5070181;28;20218;-81
2021/11/26 07:00:54;;;;;;;31.02;17.17;;;2.90;99.90;;;;;;5070553;28;20165;-79
2021/11/26 07:03:20;;;;;;;33.22;18.17;;;2.90;99.90;;;;;;5070244;28;20239;-77
2021/11/26 07:05:46;;;;;;;22.98;14.02;;;2.90;99.90;;;;;;5069365;28;20164;-77
2021/11/26 07:08:13;;;;;;;22.10;13.40;;;2.90;99.90;;;;;;5069166;28;20206;-77
2021/11/26 07:10:38;;;;;;;22.90;14.00;;;2.80;99.90;;;;;;5062968;28;20258;-76
2021/11/26 07:13:04;;;;;;;21.83;13.70;;;2.90;99.90;;;;;;5067859;28;20176;-76
2021/11/26 07:15:30;;;;;;;22.70;12.70;;;2.90;99.90;;;;;;5070019;28;20188;-77
2021/11/26 07:17:56;;;;;;;20.10;11.27;;;3.00;99.90;;;;;;5067812;28;20192;-76
2021/11/26 07:20:22;;;;;;;18.35;11.15;;;3.00;99.90;;;;;;5070214;28;20633;-76
2021/11/26 07:22:48;;;;;;;19.92;11.90;;;3.00;99.90;;;;;;5070108;28;20583;-76
2021/11/26 07:25:14;;;;;;;21.75;10.60;;;3.00;99.90;;;;;;5068694;28;20168;-76
2021/11/26 07:27:40;;;;;;;20.85;10.70;;;3.00;99.90;;;;;;5069692;28;20188;-77
2021/11/26 07:30:08;;;;;;;23.98;12.77;;;3.10;99.90;;;;;;5050269;28;20180;-76
2021/11/26 07:32:34;;;;;;;17.90;10.38;;;3.10;99.90;;;;;;5047810;28;20197;-76
2021/11/26 07:34:59;;;;;;;20.50;10.75;;;3.10;99.90;;;;;;5048885;28;20215;-77
2021/11/26 07:37:25;;;;;;;15.50;9.65;;;3.10;99.90;;;;;;5049770;28;20180;-76
2021/11/26 07:39:52;;;;;;;13.82;9.70;;;3.10;99.90;;;;;;5058941;28;20661;-76
2021/11/26 07:42:18;;;;;;;21.85;11.43;;;3.00;99.90;;;;;;5068563;28;20169;-76
2021/11/26 07:44:44;;;;;;;14.98;9.73;;;3.00;99.90;;;;;;5069760;28;20222;-76
2021/11/26 07:47:13;;;;;;;14.27;9.48;;;3.00;99.90;;;;;;5069219;28;20172;-77
2021/11/26 07:49:40;;;;;;;14.68;9.23;;;3.00;99.90;;;;;;5068452;28;20201;-76
2021/11/26 07:52:09;;;;;;;14.73;9.18;;;3.00;99.90;;;;;;5068126;28;20195;-76
2021/11/26 07:54:35;;;;;;;14.27;8.80;;;3.00;99.90;;;;;;5069493;28;20172;-77
2021/11/26 07:57:01;;;;;;;11.20;7.75;;;3.00;99.90;;;;;;5069262;28;20280;-76
2021/11/26 07:59:27;;;;;;;12.45;7.97;;;3.00;99.90;;;;;;5067033;28;20197;-76
2021/11/26 08:01:54;;;;;;;13.48;8.82;;;3.00;99.90;;;;;;5067168;28;20197;-75
2021/11/26 08:04:20;;;;;;;12.88;7.72;;;3.00;99.90;;;;;;5068492;28;20180;-75
2021/11/26 08:06:47;;;;;;;12.40;7.85;;;3.10;99.90;;;;;;5068673;28;20175;-78
2021/11/26 08:09:14;;;;;;;9.38;7.63;;;3.00;99.90;;;;;;5066899;28;20234;-78
2021/11/26 08:11:41;;;;;;;12.95;7.28;;;3.00;99.90;;;;;;5059395;28;20223;-79
2021/11/26 08:14:08;;;;;;;11.05;8.00;;;3.10;99.90;;;;;;5049044;28;20177;-76
2021/11/26 08:16:35;;;;;;;10.02;6.28;;;3.20;99.90;;;;;;5058866;28;20166;-77
2021/11/26 08:19:01;;;;;;;9.13;6.93;;;3.20;99.90;;;;;;5064516;28;20280;-76
2021/11/26 08:21:27;;;;;;;9.50;6.75;;;3.20;99.90;;;;;;5059950;28;20232;-77
2021/11/26 08:23:54;;;;;;;9.10;6.45;;;3.20;99.90;;;;;;5056622;28;20168;-77
2021/11/26 08:26:19;;;;;;;12.13;6.80;;;3.20;99.90;;;;;;5056151;28;20177;-77
2021/11/26 08:28:45;;;;;;;9.18;5.70;;;3.20;99.90;;;;;;5059130;28;20219;-76
2021/11/26 08:31:11;;;;;;;9.10;6.38;;;3.20;99.90;;;;;;5055693;28;20212;-76
2021/11/26 08:33:37;;;;;;;8.75;5.82;;;3.20;99.90;;;;;;5058364;28;20162;-76
2021/11/26 08:36:03;;;;;;;10.48;6.47;;;3.20;99.90;;;;;;5056972;28;20545;-76
2021/11/26 08:38:29;;;;;;;11.90;5.78;;;3.30;99.90;;;;;;5056990;28;20200;-76
2021/11/26 08:40:55;;;;;;;11.02;6.38;;;3.20;99.90;;;;;;5058153;28;20157;-77
2021/11/26 08:43:21;;;;;;;9.98;6.93;;;3.30;99.90;;;;;;5056001;28;20177;-76
2021/11/26 08:45:48;;;;;;;10.30;6.18;;;3.20;99.90;;;;;;5055377;28;20169;-77
2021/11/26 08:48:14;;;;;;;9.02;6.57;;;3.20;99.90;;;;;;5056729;28;20199;-77
2021/11/26 08:50:41;;;;;;;9.80;6.45;;;3.30;99.90;;;;;;5054563;28;20224;-77
2021/11/26 08:53:09;;;;;;;8.35;6.00;;;3.40;99.90;;;;;;5057323;28;20187;-76
2021/11/26 08:55:39;;;;;;;8.48;6.28;;;3.50;99.90;;;;;;5057611;28;20161;-77
2021/11/26 08:58:09;;;;;;;11.32;5.88;;;3.40;99.90;;;;;;5010958;28;1272997;-77
2021/11/26 09:00:36;;;;;;;11.52;7.32;;;3.40;99.90;;;;;;5061484;28;20165;-78
2021/11/26 09:03:04;;;;;;;10.25;6.72;;;3.40;99.90;;;;;;5058737;28;20196;-77
2021/11/26 09:05:30;;;;;;;9.45;6.25;;;3.40;99.90;;;;;;5048807;28;20213;-77
2021/11/26 09:08:00;;;;;;;10.63;7.28;;;3.40;99.90;;;;;;5048734;28;20162;-76
2021/11/26 09:10:27;;;;;;;13.98;6.15;;;3.60;99.90;;;;;;5048328;28;20213;-77
2021/11/26 09:12:53;;;;;;;8.75;5.70;;;3.50;99.90;;;;;;5048494;28;20156;-77
2021/11/26 09:15:19;;;;;;;9.65;7.03;;;3.60;99.90;;;;;;5064069;28;20165;-77
2021/11/26 09:17:46;;;;;;;8.23;5.65;;;3.50;99.90;;;;;;5047968;28;20181;-76
2021/11/26 09:20:12;;;;;;;8.70;6.70;;;3.50;99.90;;;;;;5063773;28;20176;-77
2021/11/26 09:22:38;;;;;;;9.30;6.95;;;3.60;99.90;;;;;;5063689;28;20184;-77
2021/11/26 09:25:06;;;;;;;8.00;6.03;;;3.60;99.90;;;;;;5063879;28;20181;-77
2021/11/26 09:27:32;;;;;;;7.60;6.18;;;3.60;99.90;;;;;;5066743;28;20191;-76
2021/11/26 09:29:58;;;;;;;9.57;6.60;;;3.60;99.90;;;;;;5068329;28;20202;-76
2021/11/26 09:32:24;;;;;;;8.55;5.93;;;3.60;99.90;;;;;;5066896;28;20204;-78
2021/11/26 09:34:51;;;;;;;6.90;5.28;;;3.60;99.90;;;;;;5067204;28;20161;-76
2021/11/26 09:37:17;;;;;;;9.75;6.45;;;3.60;99.90;;;;;;5068298;28;20527;-76
2021/11/26 09:39:43;;;;;;;8.25;6.05;;;3.60;99.90;;;;;;5066997;28;20275;-77
2021/11/26 09:42:10;;;;;;;9.57;6.15;;;3.70;99.90;;;;;;5065089;28;20260;-77
2021/11/26 09:44:39;;;;;;;7.43;6.10;;;3.80;99.90;;;;;;5048282;28;20169;-76
2021/11/26 09:47:06;;;;;;;7.82;6.05;;;3.80;99.90;;;;;;5046777;28;20166;-76
2021/11/26 09:49:32;;;;;;;6.32;5.20;;;3.80;99.90;;;;;;5048109;28;20357;-76
2021/11/26 09:51:59;;;;;;;8.75;6.78;;;3.70;99.90;;;;;;5046905;28;20193;-77
2021/11/26 09:54:26;;;;;;;7.00;5.93;;;3.70;99.90;;;;;;5046729;28;20228;-77
2021/11/26 09:56:52;;;;;;;9.35;6.00;;;3.70;99.90;;;;;;5050007;28;20624;-76
2021/11/26 09:59:19;;;;;;;8.02;5.75;;;3.60;99.90;;;;;;5051453;28;20189;-77
2021/11/26 10:01:45;;;;;;;6.35;5.57;;;3.50;99.90;;;;;;5050443;28;20170;-76
2021/11/26 10:04:21;;;;;;;8.13;5.25;;;3.50;99.90;;;;;;5069598;28;20208;-77
2021/11/26 10:06:48;;;;;;;9.93;6.28;;;3.50;99.90;;;;;;5071347;28;20161;-76
2021/11/26 10:09:21;;;;;;;8.55;6.97;;;3.60;99.90;;;;;;5070294;28;20215;-76
2021/11/26 10:11:53;;;;;;;7.85;5.65;;;3.60;99.90;;;;;;5070129;28;20219;-76
2021/11/26 10:14:31;;;;;;;9.50;6.63;;;3.60;99.90;;;;;;5071510;28;20164;-77
2021/11/26 10:17:15;;;;;;;8.02;5.60;;;3.60;99.90;;;;;;5071364;28;20157;-77
2021/11/26 10:19:51;;;;;;;9.32;6.70;;;3.60;99.90;;;;;;5071358;28;20215;-77
2021/11/26 10:22:23;;;;;;;10.20;7.60;;;3.60;99.90;;;;;;5071315;28;20160;-77
2021/11/26 10:25:16;;;;;;;12.75;7.68;;;3.50;99.90;;;;;;5069707;28;20165;-78
2021/11/26 10:27:44;;;;;;;16.63;9.25;;;3.50;99.90;;;;;;5071074;28;20172;-77
2021/11/26 10:30:17;;;;;;;14.40;7.70;;;3.50;99.90;;;;;;5071351;28;20557;-77
2021/11/26 10:32:53;;;;;;;8.43;6.65;;;3.40;99.90;;;;;;5070883;28;20192;-77
2021/11/26 10:35:19;;;;;;;8.93;6.53;;;3.40;99.90;;;;;;5066721;28;20341;-76
2021/11/26 10:38:08;;;;;;;9.50;6.28;;;3.50;99.90;;;;;;5061456;28;20169;-76
2021/11/26 10:40:37;;;;;;;9.23;6.45;;;3.60;99.90;;;;;;5062603;28;20164;-76
2021/11/26 10:43:06;;;;;;;8.80;6.57;;;3.60;99.90;;;;;;5057606;28;20264;-77
2021/11/26 11:00:10;;;;;;;8.27;5.55;;;3.50;99.90;;;;;;5047824;28;20201;-76
2021/11/26 11:02:47;;;;;;;9.27;6.15;;;3.50;99.90;;;;;;5035888;28;20300;-76
2021/11/26 11:05:32;;;;;;;5.57;4.05;;;3.70;99.90;;;;;;5064386;28;20199;-76
2021/11/26 11:08:01;;;;;;;6.32;4.40;;;3.60;99.90;;;;;;5046544;28;20272;-76
2021/11/26 11:10:34;;;;;;;5.28;4.40;;;3.60;99.90;;;;;;5047419;28;20169;-76
2021/11/26 11:13:24;;;;;;;5.78;4.65;;;3.70;99.90;;;;;;5031002;28;20174;-76
2021/11/26 11:15:50;;;;;;;5.25;4.53;;;3.60;99.90;;;;;;5031056;28;20205;-76
2021/11/26 11:18:17;;;;;;;4.28;3.88;;;3.60;99.90;;;;;;5050910;28;20201;-75
2021/11/26 11:20:44;;;;;;;4.55;3.80;;;3.60;99.90;;;;;;5047877;28;20260;-75
2021/11/26 11:23:14;;;;;;;5.72;3.67;;;3.60;99.90;;;;;;5056128;28;20278;-75
2021/11/26 11:25:41;;;;;;;4.68;3.60;;;3.60;99.90;;;;;;5047932;28;20256;-75
2021/11/26 11:28:10;;;;;;;4.75;3.85;;;3.50;99.90;;;;;;5042978;28;20264;-75
2021/11/26 11:30:38;;;;;;;4.88;4.38;;;3.50;99.90;;;;;;5049984;28;20192;-75
2021/11/26 11:33:04;;;;;;;4.63;4.22;;;3.40;99.90;;;;;;5052020;28;20200;-75
2021/11/26 11:35:32;;;;;;;7.13;4.93;;;3.50;99.90;;;;;;5060953;28;20181;-75
2021/11/26 11:38:00;;;;;;;4.70;3.90;;;3.50;99.90;;;;;;5069719;28;20184;-75
2021/11/26 11:40:33;;;;;;;4.40;3.50;;;3.50;99.90;;;;;;5066101;28;20225;-75
2021/11/26 11:43:18;;;;;;;4.97;3.78;;;3.60;99.90;;;;;;5049549;28;20149;-75
2021/11/26 11:45:55;;;;;;;4.22;3.42;;;3.50;99.90;;;;;;5049813;28;20173;-75
2021/11/26 11:48:26;;;;;;;4.72;3.28;;;3.50;99.90;;;;;;5059772;28;20197;-75
2021/11/26 11:50:53;;;;;;;2.65;2.45;;;3.50;99.90;;;;;;5048077;28;20205;-75
2021/11/26 11:53:30;;;;;;;3.97;3.25;;;3.50;99.90;;;;;;5049445;28;20165;-75
2021/11/26 11:56:16;;;;;;;4.13;3.05;;;3.50;99.90;;;;;;5048276;28;20165;-75
2021/11/26 11:58:53;;;;;;;3.42;3.10;;;3.50;99.90;;;;;;5048920;28;20231;-75
2021/11/26 12:01:30;;;;;;;3.42;3.03;;;3.40;99.90;;;;;;5049064;28;20157;-75
2021/11/26 12:03:59;;;;;;;3.65;2.67;;;3.40;99.90;;;;;;5056937;28;20184;-76
2021/11/26 12:06:42;;;;;;;2.65;2.30;;;3.30;99.90;;;;;;5049287;28;20183;-76
2021/11/26 12:09:26;;;;;;;3.00;2.40;;;3.20;99.90;;;;;;5047864;28;20197;-75
2021/11/26 12:12:12;;;;;;;2.63;2.42;;;3.20;99.90;;;;;;5049051;28;20200;-74
2021/11/26 12:14:50;;;;;;;3.33;2.72;;;3.20;99.90;;;;;;5049098;28;20584;-75
2021/11/26 12:17:31;;;;;;;3.15;2.88;;;3.20;99.90;;;;;;5048641;28;20154;-75
2021/11/26 12:20:17;;;;;;;3.10;2.03;;;3.20;99.90;;;;;;5047651;28;20189;-75
2021/11/26 12:22:51;;;;;;;3.28;2.45;;;3.10;99.90;;;;;;5048798;28;20207;-74
2021/11/26 12:25:30;;;;;;;3.70;2.47;;;3.10;99.90;;;;;;5049124;28;20160;-75
2021/11/26 12:28:01;;;;;;;3.20;2.70;;;3.00;99.90;;;;;;5049063;28;20530;-75
2021/11/26 12:30:27;;;;;;;3.92;3.03;;;3.00;99.90;;;;;;5048851;28;20185;-75
2021/11/26 12:32:54;;;;;;;4.20;3.38;;;3.00;99.90;;;;;;5047138;28;20188;-75
2021/11/26 12:35:20;;;;;;;3.88;3.17;;;2.90;99.90;;;;;;5047401;28;20169;-75
2021/11/26 12:37:53;;;;;;;2.42;2.22;;;2.90;99.90;;;;;;5047569;28;20166;-75
2021/11/26 12:40:19;;;;;;;3.05;2.42;;;2.90;99.90;;;;;;5061675;28;20165;-75
2021/11/26 12:42:45;;;;;;;3.05;2.60;;;2.90;99.90;;;;;;5067454;28;20187;-75
2021/11/26 12:45:15;;;;;;;2.88;2.58;;;2.80;99.90;;;;;;5067140;28;20227;-75
2021/11/26 12:47:54;;;;;;;4.30;3.47;;;2.80;99.90;;;;;;5067000;28;20196;-75
2021/11/26 12:53:15;;;;;;;4.88;2.72;;;2.80;99.90;;;;;;5068606;28;20159;-75
2021/11/26 12:55:52;;;;;;;3.40;2.88;;;2.80;99.90;;;;;;5067399;28;20187;-74
2021/11/26 12:58:19;;;;;;;3.10;2.72;;;2.70;99.90;;;;;;5067039;28;20262;-75
2021/11/26 13:00:59;;;;;;;4.82;3.47;;;2.80;99.90;;;;;;5068552;28;20270;-75
2021/11/26 13:03:27;;;;;;;3.38;2.38;;;2.80;99.90;;;;;;5068400;28;20180;-75
2021/11/26 13:05:56;;;;;;;4.00;3.40;;;2.80;99.90;;;;;;5068663;28;20165;-75